Time;durP1;ratioP1;P1;durP2;ratioP2;P2;SDS_P1;SDS_P2;PMS_P1;PMS_P2;Temp;Humidity;BMP_temperature;BMP_pressure;BME280_temperature;BME280_humidity;BME280_pressure;Samples;Min_cycle;Max_cycle;Signal;HPM_P1;HPM_P2
2024/03/10 00:00:20;;;;;;;28.83;15.17;;;;;;;4.49;56.55;100185.00;5068169;28;20200;-63
2024/03/10 00:02:51;;;;;;;31.90;16.07;;;;;;;4.48;56.74;100179.06;5062920;28;20206;-63
2024/03/10 00:05:21;;;;;;;27.60;16.67;;;;;;;4.49;56.59;100187.56;5079883;28;20254;-65
2024/03/10 00:07:50;;;;;;;28.23;16.13;;;;;;;4.47;56.43;100185.00;5061060;28;20645;-63
2024/03/10 00:10:18;;;;;;;25.70;15.00;;;;;;;4.44;56.89;100184.09;5067521;28;20217;-62
2024/03/10 00:12:48;;;;;;;30.00;16.27;;;;;;;4.43;57.00;100184.94;5071709;28;20236;-62
2024/03/10 00:15:17;;;;;;;24.63;14.00;;;;;;;4.42;56.72;100190.84;5071794;28;20623;-62
2024/03/10 00:17:45;;;;;;;30.50;15.17;;;;;;;4.37;56.69;100188.25;5071487;28;20213;-63
2024/03/10 00:20:15;;;;;;;28.40;15.80;;;;;;;4.33;57.24;100184.78;5071325;28;20662;-64
2024/03/10 00:22:44;;;;;;;31.97;16.47;;;;;;;4.33;57.41;100192.44;5059839;28;20947;-61
2024/03/10 00:25:17;;;;;;;30.90;15.57;;;;;;;4.30;56.89;100179.63;5060390;28;20639;-63
2024/03/10 00:27:45;;;;;;;29.03;16.13;;;;;;;4.27;57.03;100187.25;5066810;28;20204;-63
2024/03/10 00:30:13;;;;;;;29.47;16.07;;;;;;;4.27;57.05;100182.16;5070016;28;20225;-63
2024/03/10 00:32:41;;;;;;;32.60;16.43;;;;;;;4.26;57.25;100185.50;5070930;28;20198;-63
2024/03/10 00:35:10;;;;;;;31.73;16.37;;;;;;;4.24;57.40;100178.69;5071113;28;20211;-62
2024/03/10 00:37:40;;;;;;;29.47;15.90;;;;;;;4.25;57.26;100182.94;5070744;28;20574;-64
2024/03/10 00:40:09;;;;;;;28.10;15.60;;;;;;;4.26;57.33;100177.84;5067770;28;20712;-64
2024/03/10 00:42:37;;;;;;;32.17;16.07;;;;;;;4.27;57.47;100169.41;5064526;28;20288;-63
2024/03/10 00:45:06;;;;;;;28.27;15.93;;;;;;;4.27;57.77;100164.28;5071169;28;20296;-63
2024/03/10 00:47:37;;;;;;;26.53;16.10;;;;;;;4.25;57.66;100162.53;5071026;28;20458;-65
2024/03/10 00:50:08;;;;;;;27.43;16.33;;;;;;;4.22;57.78;100158.25;5071238;28;20652;-65
2024/03/10 00:52:37;;;;;;;29.63;15.70;;;;;;;4.19;57.78;100158.19;5069112;28;20207;-64
2024/03/10 00:55:10;;;;;;;29.10;15.63;;;;;;;4.20;57.77;100156.50;5070770;28;20225;-64
2024/03/10 00:57:39;;;;;;;26.83;14.47;;;;;;;4.18;58.33;100151.38;5070838;28;20197;-63
2024/03/10 01:00:09;;;;;;;36.27;15.90;;;;;;;4.16;58.18;100153.06;5063962;28;20212;-62
2024/03/10 01:02:38;;;;;;;28.03;15.03;;;;;;;4.14;58.44;100159.81;5066127;28;20232;-63
2024/03/10 01:05:06;;;;;;;28.77;15.17;;;;;;;4.11;58.48;100157.22;5068326;28;20247;-62
2024/03/10 01:07:34;;;;;;;30.83;16.57;;;;;;;4.10;58.20;100165.72;5070573;28;20197;-62
2024/03/10 01:10:03;;;;;;;28.23;15.47;;;;;;;4.11;58.22;100162.31;5070970;28;20224;-62
2024/03/10 01:12:33;;;;;;;26.40;15.57;;;;;;;4.09;59.00;100164.84;5068806;28;20212;-63
2024/03/10 01:15:03;;;;;;;31.20;17.10;;;;;;;4.08;58.86;100159.72;5069883;28;20205;-63
2024/03/10 01:17:31;;;;;;;29.97;15.40;;;;;;;4.06;58.63;100162.25;5067486;28;20197;-62
2024/03/10 01:20:00;;;;;;;28.87;15.73;;;;;;;4.05;59.24;100152.00;5057435;28;20666;-62
2024/03/10 01:22:31;;;;;;;28.97;15.77;;;;;;;4.05;58.75;100150.34;5066584;28;20289;-62
2024/03/10 01:25:00;;;;;;;27.57;15.10;;;;;;;4.05;59.38;100160.53;5069656;28;20877;-63
2024/03/10 01:27:28;;;;;;;27.73;16.03;;;;;;;4.07;59.11;100160.56;5070999;28;20684;-62
2024/03/10 01:29:57;;;;;;;26.50;15.30;;;;;;;4.06;59.71;100162.25;5069769;28;20235;-61
2024/03/10 01:32:25;;;;;;;29.07;15.53;;;;;;;4.08;59.36;100164.81;5070510;28;20229;-67
2024/03/10 01:34:55;;;;;;;26.23;15.20;;;;;;;4.08;59.31;100154.63;5070101;28;20193;-63
2024/03/10 01:37:23;;;;;;;28.87;15.50;;;;;;;4.08;59.19;100162.25;5069392;28;20244;-63
2024/03/10 01:39:51;;;;;;;23.40;14.63;;;;;;;4.11;59.47;100159.75;5065075;28;20197;-64
2024/03/10 01:42:19;;;;;;;24.80;13.47;;;;;;;4.09;59.05;100153.81;5076580;28;20666;-67
2024/03/10 01:44:47;;;;;;;28.37;15.10;;;;;;;4.10;59.68;100152.97;5074333;28;20224;-66
2024/03/10 01:47:16;;;;;;;30.00;16.23;;;;;;;4.11;59.08;100155.53;5074142;28;20209;-62
2024/03/10 01:49:44;;;;;;;32.03;15.83;;;;;;;4.08;58.85;100152.91;5072899;28;20300;-59
2024/03/10 01:52:13;;;;;;;28.03;14.97;;;;;;;4.09;58.81;100151.25;5074365;28;20562;-63
2024/03/10 01:54:41;;;;;;;26.90;15.10;;;;;;;4.06;59.03;100146.09;5074019;28;20215;-67
2024/03/10 01:57:09;;;;;;;31.43;15.90;;;;;;;4.03;58.90;100156.25;5064322;28;20193;-62
2024/03/10 01:59:38;;;;;;;28.30;15.87;;;;;;;3.99;59.18;100157.88;5071176;28;20376;-64
2024/03/10 02:02:06;;;;;;;26.77;16.40;;;;;;;3.98;59.38;100152.75;5072224;28;20213;-63
2024/03/10 02:04:37;;;;;;;30.10;16.50;;;;;;;3.97;59.34;100145.94;5067506;28;20202;-62
2024/03/10 02:07:05;;;;;;;32.03;16.40;;;;;;;3.95;59.34;100152.72;5067081;28;20201;-62
2024/03/10 02:09:35;;;;;;;26.53;15.20;;;;;;;3.95;59.07;100160.34;5074381;28;20954;-62
2024/03/10 02:12:06;;;;;;;27.97;15.70;;;;;;;3.93;59.68;100160.31;5067442;28;20563;-64
2024/03/10 02:14:34;;;;;;;26.30;15.73;;;;;;;3.91;59.56;100163.69;5069430;28;20267;-65
2024/03/10 02:17:03;;;;;;;28.00;16.17;;;;;;;3.85;59.11;100162.72;5064617;28;20209;-61
2024/03/10 02:19:31;;;;;;;28.80;15.97;;;;;;;3.83;59.10;100156.78;5075067;28;20201;-62
2024/03/10 02:22:00;;;;;;;28.37;16.37;;;;;;;3.80;59.55;100161.81;5073740;28;20592;-64
2024/03/10 02:24:33;;;;;;;31.10;17.07;;;;;;;3.79;60.19;100160.09;5072692;28;20205;-62
2024/03/10 02:27:04;;;;;;;30.53;16.87;;;;;;;3.77;59.39;100158.34;5072363;28;21039;-62
2024/03/10 02:29:49;;;;;;;28.97;15.97;;;;;;;3.75;59.42;100153.19;5073442;28;20211;-61
2024/03/10 02:48:53;;;;;;;28.27;16.33;;;;;;;3.69;60.15;100158.22;5069784;28;20682;-62
2024/03/10 02:51:21;;;;;;;28.40;15.63;;;;;;;3.67;59.81;100152.22;5068733;28;20673;-63
2024/03/10 02:53:49;;;;;;;31.77;17.33;;;;;;;3.66;59.68;100159.84;5062524;28;20208;-65
2024/03/10 02:56:17;;;;;;;30.97;16.77;;;;;;;3.62;60.38;100153.84;5069001;28;20205;-65
2024/03/10 02:58:47;;;;;;;28.73;16.90;;;;;;;3.58;60.82;100146.97;5073261;28;20653;-63
2024/03/10 03:01:16;;;;;;;30.47;16.33;;;;;;;3.53;60.08;100154.50;5059084;28;20225;-63
2024/03/10 03:03:44;;;;;;;31.10;17.20;;;;;;;3.50;60.80;100158.69;5064467;28;20194;-61
2024/03/10 03:06:12;;;;;;;36.03;18.77;;;;;;;3.46;61.06;100152.69;5057885;28;20271;-64
2024/03/10 03:08:40;;;;;;;31.03;17.30;;;;;;;3.44;60.35;100159.44;5071603;28;20678;-61
2024/03/10 03:11:09;;;;;;;30.67;15.50;;;;;;;3.42;60.77;100157.69;5072632;28;20209;-61
2024/03/10 03:13:37;;;;;;;30.83;16.93;;;;;;;3.39;60.76;100159.34;5072227;28;20244;-61
2024/03/10 03:16:09;;;;;;;30.83;16.07;;;;;;;3.37;61.01;100152.50;5072108;28;20638;-65
2024/03/10 03:18:40;;;;;;;32.13;17.97;;;;;;;3.33;61.10;100146.50;5072600;28;20201;-61
2024/03/10 03:21:08;;;;;;;28.27;17.00;;;;;;;3.34;60.99;100149.91;5072682;28;20569;-64
2024/03/10 03:23:36;;;;;;;32.57;17.00;;;;;;;3.31;60.88;100150.69;5071026;28;20197;-64
2024/03/10 03:26:04;;;;;;;31.73;17.03;;;;;;;3.30;61.01;100154.06;5071388;28;20206;-62
2024/03/10 03:28:32;;;;;;;31.83;17.23;;;;;;;3.28;61.91;100157.44;5066106;28;20692;-63
2024/03/10 03:31:00;;;;;;;30.23;15.73;;;;;;;3.26;61.92;100156.53;5072079;28;20221;-62
2024/03/10 03:33:29;;;;;;;31.43;18.77;;;;;;;3.22;61.03;100152.22;5072354;28;20289;-62
2024/03/10 03:35:58;;;;;;;29.23;17.07;;;;;;;3.20;61.92;100153.84;5068997;28;20258;-61
2024/03/10 03:38:26;;;;;;;26.13;16.40;;;;;;;3.19;61.62;100155.56;5084282;28;20715;-62
2024/03/10 03:40:54;;;;;;;27.27;15.10;;;;;;;3.15;62.01;100157.16;5072426;28;20223;-61
2024/03/10 03:43:22;;;;;;;29.33;16.53;;;;;;;3.13;61.88;100151.22;5065615;28;20208;-62
2024/03/10 03:45:50;;;;;;;33.70;18.07;;;;;;;3.12;61.94;100146.94;5064010;28;20564;-63
2024/03/10 03:48:18;;;;;;;34.47;18.17;;;;;;;3.12;62.64;100151.16;5072433;28;20630;-62
2024/03/10 03:50:48;;;;;;;36.10;18.30;;;;;;;3.10;62.56;100143.50;5068662;28;20201;-61
2024/03/10 03:53:16;;;;;;;32.33;15.63;;;;;;;3.06;62.85;100143.41;5066334;28;20267;-64
2024/03/10 03:55:44;;;;;;;33.60;17.43;;;;;;;3.04;62.61;100137.44;5075036;28;20213;-61
2024/03/10 03:58:12;;;;;;;26.20;16.53;;;;;;;3.04;63.16;100132.34;5072282;28;20356;-60
2024/03/10 04:00:40;;;;;;;29.83;17.53;;;;;;;3.03;62.26;100136.56;5070981;28;20642;-63
2024/03/10 04:03:09;;;;;;;30.83;16.50;;;;;;;3.05;63.12;100134.03;5069133;28;20611;-62
2024/03/10 04:05:37;;;;;;;26.97;16.83;;;;;;;3.05;62.91;100128.94;5067589;28;20209;-62
2024/03/10 04:08:07;;;;;;;32.13;17.77;;;;;;;3.06;63.47;100140.88;5071890;28;20193;-61
2024/03/10 04:10:35;;;;;;;28.40;16.20;;;;;;;3.03;62.54;100123.84;5068815;28;20205;-64
2024/03/10 04:13:05;;;;;;;28.60;16.80;;;;;;;3.05;63.52;100127.25;5062725;28;20252;-60
2024/03/10 04:15:35;;;;;;;32.83;16.30;;;;;;;3.05;63.27;100131.50;5071742;28;20292;-61
2024/03/10 04:18:04;;;;;;;26.17;15.63;;;;;;;3.04;63.36;100124.69;5067066;28;20266;-62
2024/03/10 04:20:33;;;;;;;28.67;15.67;;;;;;;3.01;63.50;100124.63;5066654;28;20243;-62
2024/03/10 04:23:02;;;;;;;28.83;15.87;;;;;;;3.00;63.82;100116.16;5069889;28;20256;-61
2024/03/10 04:25:32;;;;;;;28.97;16.00;;;;;;;3.01;63.64;100119.53;5066549;28;20213;-65
2024/03/10 04:28:01;;;;;;;29.27;16.53;;;;;;;3.02;63.49;100118.69;5071640;28;20266;-61
2024/03/10 04:30:29;;;;;;;28.33;14.93;;;;;;;3.06;63.83;100123.06;5071377;28;20221;-61
2024/03/10 04:32:57;;;;;;;26.10;15.07;;;;;;;3.04;63.31;100117.06;5070396;28;20942;-62
2024/03/10 04:35:25;;;;;;;30.37;15.97;;;;;;;3.04;63.70;100111.97;5068123;28;20728;-61
2024/03/10 04:37:53;;;;;;;26.57;16.27;;;;;;;3.03;63.35;100112.81;5070223;28;20209;-62
2024/03/10 04:40:21;;;;;;;28.93;15.87;;;;;;;2.99;63.87;100113.59;5071299;28;20201;-62
2024/03/10 04:42:51;;;;;;;29.93;16.77;;;;;;;2.94;63.19;100110.06;5064832;28;20201;-65
2024/03/10 04:45:18;;;;;;;33.20;18.67;;;;;;;2.90;63.84;100110.00;5068616;28;20205;-61
2024/03/10 04:47:47;;;;;;;29.07;16.90;;;;;;;2.86;64.04;100108.22;5070991;28;20205;-62
2024/03/10 04:50:15;;;;;;;30.00;16.53;;;;;;;2.83;64.42;100113.25;5070849;28;20194;-62
2024/03/10 04:52:44;;;;;;;28.80;17.07;;;;;;;2.80;64.27;100103.03;5070817;28;20225;-61
2024/03/10 04:55:13;;;;;;;28.93;16.17;;;;;;;2.82;63.75;100106.44;5059994;28;20560;-61
2024/03/10 04:57:41;;;;;;;26.10;16.07;;;;;;;2.82;64.89;100110.69;5067780;28;20254;-63
2024/03/10 05:00:11;;;;;;;30.37;18.07;;;;;;;2.82;64.60;100114.06;5073928;28;20211;-61
2024/03/10 05:02:39;;;;;;;34.40;18.40;;;;;;;2.82;64.64;100110.69;5070759;28;20197;-63
2024/03/10 05:05:08;;;;;;;31.50;16.83;;;;;;;2.81;64.27;100104.72;5070724;28;20634;-61
2024/03/10 05:07:39;;;;;;;31.03;16.43;;;;;;;2.84;64.23;100109.03;5067961;28;20216;-62
2024/03/10 05:10:08;;;;;;;31.67;17.53;;;;;;;2.88;64.48;100116.75;5071114;28;20197;-61
2024/03/10 05:12:36;;;;;;;27.50;16.90;;;;;;;2.88;65.08;100109.13;5070624;28;20650;-63
2024/03/10 05:15:04;;;;;;;31.20;16.77;;;;;;;2.89;64.27;100113.38;5066395;28;20216;-62
2024/03/10 05:17:34;;;;;;;35.23;17.07;;;;;;;2.92;64.48;100121.91;5067689;28;20213;-61
2024/03/10 05:20:02;;;;;;;30.23;17.77;;;;;;;2.92;64.84;100122.78;5074254;28;20209;-62
2024/03/10 05:22:31;;;;;;;29.37;16.87;;;;;;;2.93;64.05;100116.00;5066760;28;20193;-62
2024/03/10 05:24:59;;;;;;;31.40;16.03;;;;;;;2.99;63.83;100124.63;5070669;28;20299;-59
2024/03/10 05:27:27;;;;;;;28.13;16.27;;;;;;;3.00;64.34;100120.38;5068259;28;20244;-61
2024/03/10 05:29:55;;;;;;;30.47;16.63;;;;;;;3.01;63.89;100120.41;5070989;28;20228;-62
2024/03/10 05:32:23;;;;;;;29.03;16.63;;;;;;;3.03;64.21;100126.41;5070556;28;20225;-62
2024/03/10 05:34:56;;;;;;;30.30;17.47;;;;;;;3.02;63.68;100119.59;5064967;28;20208;-64
2024/03/10 05:37:24;;;;;;;31.70;18.50;;;;;;;3.02;64.31;100119.59;5064450;28;20729;-62
2024/03/10 05:39:52;;;;;;;27.53;16.80;;;;;;;3.05;63.95;100124.72;5070511;28;20197;-69
2024/03/10 05:42:21;;;;;;;33.97;17.33;;;;;;;3.08;64.32;100124.78;5070330;28;20284;-61
2024/03/10 05:44:49;;;;;;;31.90;17.43;;;;;;;3.09;63.84;100118.00;5062733;28;20668;-61
2024/03/10 05:47:17;;;;;;;29.20;16.77;;;;;;;3.11;64.02;100129.09;5063079;28;20210;-62
2024/03/10 05:49:47;;;;;;;31.00;17.60;;;;;;;3.12;64.01;100128.25;5070495;28;20213;-62
2024/03/10 05:52:16;;;;;;;27.40;15.93;;;;;;;3.12;64.49;100131.66;5067027;28;20228;-61
2024/03/10 05:54:44;;;;;;;32.37;19.67;;;;;;;3.12;63.40;100131.66;5072057;28;20212;-62
2024/03/10 05:57:12;;;;;;;32.57;18.63;;;;;;;3.14;64.45;100134.25;5069759;28;20624;-65
2024/03/10 05:59:43;;;;;;;33.00;17.77;;;;;;;3.15;64.11;100133.41;5070518;28;20206;-63
2024/03/10 06:02:13;;;;;;;28.97;16.50;;;;;;;3.19;63.74;100139.41;5060438;28;20206;-64
2024/03/10 06:04:41;;;;;;;31.40;17.10;;;;;;;3.18;63.57;100130.94;5064380;28;20212;-62
2024/03/10 06:07:10;;;;;;;29.67;17.00;;;;;;;3.20;63.80;100134.34;5068264;28;20250;-62
2024/03/10 06:09:40;;;;;;;32.07;17.23;;;;;;;3.24;64.00;100136.16;5069874;28;20271;-63
2024/03/10 06:12:09;;;;;;;28.37;15.73;;;;;;;3.28;63.50;100140.47;5057770;28;20202;-62
2024/03/10 06:14:38;;;;;;;29.77;16.50;;;;;;;3.28;63.98;100132.84;5069675;28;20233;-63
2024/03/10 06:17:08;;;;;;;27.00;15.33;;;;;;;3.33;63.26;100143.94;5069735;28;20208;-64
2024/03/10 06:25:27;;;;;;;25.90;15.97;;;;;;;3.55;62.54;100131.63;5061431;28;20289;-62
2024/03/10 06:27:56;;;;;;;30.27;16.40;;;;;;;3.67;62.50;100131.84;5075508;28;20670;-62
2024/03/10 06:30:24;;;;;;;29.13;16.77;;;;;;;3.77;62.39;100127.75;5072855;28;21509;-62
2024/03/10 06:32:52;;;;;;;28.00;15.57;;;;;;;3.92;62.05;100122.06;5073808;28;20682;-61
2024/03/10 06:35:20;;;;;;;26.33;16.73;;;;;;;4.03;61.63;100120.53;5068661;28;20284;-64
2024/03/10 06:37:49;;;;;;;25.20;15.93;;;;;;;4.13;60.97;100130.06;5075210;28;20205;-62
2024/03/10 06:40:18;;;;;;;22.80;14.10;;;;;;;4.17;60.76;100118.22;5073215;28;20204;-62
2024/03/10 06:42:46;;;;;;;30.17;15.93;;;;;;;4.21;60.59;100120.84;5062801;28;20208;-62
2024/03/10 06:45:14;;;;;;;25.37;15.13;;;;;;;4.22;61.05;100124.25;5072692;28;20201;-62
2024/03/10 06:47:42;;;;;;;28.40;16.10;;;;;;;4.29;61.25;100124.34;5073402;28;20201;-63
2024/03/10 06:50:10;;;;;;;29.03;15.43;;;;;;;4.41;60.75;100127.91;5073101;28;20325;-64
2024/03/10 06:52:40;;;;;;;25.93;14.67;;;;;;;4.56;60.42;100128.13;5066836;28;20258;-62
2024/03/10 06:55:09;;;;;;;27.50;14.73;;;;;;;4.84;59.75;100119.16;5081754;28;20205;-62
2024/03/10 06:57:39;;;;;;;29.47;15.67;;;;;;;5.11;58.65;100113.53;5073500;28;20277;-63
2024/03/10 07:00:12;;;;;;;24.97;15.17;;;;;;;5.30;58.33;100118.03;5076742;28;20287;-64
2024/03/10 07:02:45;;;;;;;25.30;15.40;;;;;;;5.40;57.80;100118.09;5065135;28;20212;-61
2024/03/10 07:05:14;;;;;;;25.43;14.80;;;;;;;5.50;57.61;100117.38;5073089;28;20202;-63
2024/03/10 07:07:43;;;;;;;23.43;15.27;;;;;;;5.55;57.60;100115.69;5072960;28;22763;-64
2024/03/10 07:10:12;;;;;;;23.53;15.00;;;;;;;5.62;57.64;100116.63;5062229;28;20246;-62
2024/03/10 07:12:41;;;;;;;21.83;14.00;;;;;;;5.91;57.14;100119.44;5069645;28;20586;-62
2024/03/10 07:15:10;;;;;;;26.17;15.60;;;;;;;6.25;56.24;100121.44;5072666;28;20250;-61
2024/03/10 07:17:39;;;;;;;25.27;14.67;;;;;;;6.55;54.56;100125.06;5073097;28;20691;-62
2024/03/10 07:20:10;;;;;;;25.10;15.43;;;;;;;6.74;54.41;100126.88;5065259;28;20339;-61
2024/03/10 07:22:41;;;;;;;24.53;14.17;;;;;;;6.78;53.74;100126.06;5067184;28;20206;-64
2024/03/10 07:25:11;;;;;;;20.63;13.27;;;;;;;6.82;54.00;100124.38;5060643;28;20202;-62
2024/03/10 07:27:39;;;;;;;24.10;14.57;;;;;;;7.03;54.03;100126.16;5072554;28;20546;-60
2024/03/10 07:30:10;;;;;;;27.60;14.87;;;;;;;7.35;52.43;100136.50;5073215;28;20670;-62
2024/03/10 07:32:38;;;;;;;22.83;13.70;;;;;;;7.48;52.14;100133.16;5064504;28;20247;-65
2024/03/10 07:35:08;;;;;;;23.73;14.17;;;;;;;7.70;51.58;100131.47;5071308;28;20224;-63
2024/03/10 07:37:37;;;;;;;20.60;13.00;;;;;;;7.85;50.86;100127.22;5068174;28;20251;-62
2024/03/10 07:40:15;;;;;;;22.50;14.23;;;;;;;8.05;50.86;100115.25;5067974;28;20201;-65
2024/03/10 07:42:43;;;;;;;20.20;12.97;;;;;;;8.52;50.40;100122.06;5074888;28;20196;-64
2024/03/10 07:45:13;;;;;;;19.50;12.30;;;;;;;8.77;48.56;100127.16;5065944;28;20293;-62
2024/03/10 07:47:42;;;;;;;21.30;13.13;;;;;;;8.65;49.07;100128.03;5065585;28;20205;-64
2024/03/10 07:50:11;;;;;;;23.57;13.63;;;;;;;8.69;49.09;100124.63;5072564;28;20197;-62
2024/03/10 07:52:40;;;;;;;21.63;13.57;;;;;;;9.27;48.53;100120.94;5072461;28;20251;-62
2024/03/10 07:55:09;;;;;;;20.63;13.03;;;;;;;10.25;46.11;100122.84;5070460;28;20292;-64
2024/03/10 07:57:39;;;;;;;18.63;12.47;;;;;;;11.18;43.49;100115.84;5064784;28;20233;-63
2024/03/10 08:00:11;;;;;;;19.93;13.33;;;;;;;11.96;41.38;100109.56;5069680;28;20238;-62
2024/03/10 08:02:43;;;;;;;21.43;14.37;;;;;;;12.57;40.35;100119.72;5069832;28;20673;-66
2024/03/10 08:05:12;;;;;;;22.57;14.07;;;;;;;13.05;39.10;100109.28;5069272;28;20315;-65
2024/03/10 08:07:40;;;;;;;21.00;14.50;;;;;;;13.65;37.83;100113.19;5071747;28;20197;-64
2024/03/10 08:10:12;;;;;;;19.47;12.33;;;;;;;14.21;37.13;100112.69;5057548;28;20201;-64
2024/03/10 08:12:43;;;;;;;19.73;13.00;;;;;;;14.70;35.47;100103.66;5067145;28;20783;-66
2024/03/10 08:15:11;;;;;;;19.00;12.63;;;;;;;14.83;34.44;100115.38;5069675;28;20217;-65
2024/03/10 08:17:40;;;;;;;17.00;12.13;;;;;;;14.72;34.92;100117.44;5071678;28;20235;-64
2024/03/10 08:20:13;;;;;;;16.70;11.83;;;;;;;13.94;35.25;100115.09;5070429;28;20194;-64
2024/03/10 08:22:43;;;;;;;18.47;12.47;;;;;;;13.13;36.53;100114.28;5071921;28;20569;-64
2024/03/10 08:25:12;;;;;;;17.70;12.60;;;;;;;12.66;38.54;100118.66;5069273;28;20263;-65
2024/03/10 08:27:40;;;;;;;17.57;12.37;;;;;;;12.16;39.54;100110.13;5061679;28;20226;-65
2024/03/10 08:30:10;;;;;;;18.67;11.53;;;;;;;11.61;40.72;100118.69;5069592;28;20193;-65
2024/03/10 08:32:38;;;;;;;15.87;10.53;;;;;;;10.95;42.19;100117.00;5071152;28;20212;-65
2024/03/10 08:35:09;;;;;;;20.30;12.43;;;;;;;10.45;43.04;100114.97;5057513;28;20864;-64
2024/03/10 08:37:44;;;;;;;17.43;11.83;;;;;;;10.20;44.44;100114.28;5070285;28;20254;-64
2024/03/10 08:40:14;;;;;;;16.53;11.43;;;;;;;10.02;44.88;100108.47;5070640;28;20288;-64
2024/03/10 08:42:41;;;;;;;16.40;11.70;;;;;;;9.96;45.47;100111.06;5071041;28;20312;-66
2024/03/10 08:45:10;;;;;;;16.60;10.60;;;;;;;9.98;45.04;100106.78;5066709;28;20193;-64
2024/03/10 08:47:39;;;;;;;18.07;11.60;;;;;;;10.00;45.21;100112.75;5077607;28;20240;-64
2024/03/10 08:50:10;;;;;;;15.40;10.80;;;;;;;10.26;44.82;100098.81;5064109;28;20726;-66
2024/03/10 08:52:40;;;;;;;16.30;10.20;;;;;;;10.61;43.76;100101.91;5067736;28;20293;-67
2024/03/10 08:55:13;;;;;;;16.07;10.60;;;;;;;10.94;43.53;100099.81;5064037;28;20229;-65
2024/03/10 08:57:42;;;;;;;13.63;9.60;;;;;;;11.13;42.28;100101.28;5070136;28;20197;-65
2024/03/10 09:00:13;;;;;;;15.87;10.80;;;;;;;11.27;42.28;100097.69;5072367;28;20212;-64
2024/03/10 09:02:41;;;;;;;15.27;9.63;;;;;;;11.33;41.95;100093.28;5071968;28;20201;-63
2024/03/10 09:05:12;;;;;;;13.83;9.90;;;;;;;11.28;41.93;100083.91;5070218;28;20213;-63
2024/03/10 09:07:42;;;;;;;16.93;10.50;;;;;;;11.20;41.96;100089.16;5066865;28;20201;-63
2024/03/10 09:10:10;;;;;;;13.60;9.47;;;;;;;11.19;41.83;100094.34;5065882;28;20201;-63
2024/03/10 09:12:40;;;;;;;13.40;9.30;;;;;;;11.23;42.00;100098.56;5070105;28;20296;-64
2024/03/10 09:15:09;;;;;;;15.47;9.70;;;;;;;11.15;42.02;100087.50;5070617;28;20232;-64
2024/03/10 09:17:38;;;;;;;15.03;9.20;;;;;;;11.15;42.19;100082.34;5067849;28;20205;-67
2024/03/10 09:20:11;;;;;;;17.50;8.80;;;;;;;11.11;42.17;100091.84;5063385;28;20303;-63
2024/03/10 09:22:42;;;;;;;20.87;9.20;;;;;;;10.95;42.37;100085.19;5066136;28;20223;-62
2024/03/10 09:25:20;;;;;;;12.13;8.20;;;;;;;10.87;43.05;100087.88;5071147;28;20560;-65
2024/03/10 09:27:49;;;;;;;13.03;9.57;;;;;;;10.83;43.00;100091.38;5067503;28;20203;-64
2024/03/10 09:30:21;;;;;;;15.90;9.87;;;;;;;10.76;43.27;100089.72;5064860;28;20209;-65
2024/03/10 09:32:50;;;;;;;13.00;8.43;;;;;;;10.69;43.50;100075.22;5070653;28;20215;-64
2024/03/10 09:35:23;;;;;;;13.63;9.50;;;;;;;10.58;43.66;100076.19;5063436;28;20218;-65
2024/03/10 09:37:54;;;;;;;11.80;8.40;;;;;;;10.49;44.23;100073.69;5070654;28;20197;-61
2024/03/10 09:40:28;;;;;;;15.07;9.47;;;;;;;10.45;44.76;100073.75;5070979;28;20297;-62
2024/03/10 09:42:59;;;;;;;15.07;9.37;;;;;;;10.50;44.66;100065.09;5070193;28;20215;-64
2024/03/10 09:45:29;;;;;;;11.83;8.80;;;;;;;10.56;44.43;100066.75;5064136;28;20319;-67
2024/03/10 09:47:58;;;;;;;15.80;9.57;;;;;;;10.61;44.22;100060.69;5068156;28;20229;-63
2024/03/10 09:50:30;;;;;;;27.03;9.53;;;;;;;10.67;43.96;100074.34;5062304;28;20298;-64
2024/03/10 09:52:59;;;;;;;12.23;7.87;;;;;;;10.63;44.25;100063.22;5070015;28;20198;-68
2024/03/10 09:55:28;;;;;;;14.33;8.60;;;;;;;10.64;44.53;100055.50;5066853;28;20716;-65
2024/03/10 09:57:56;;;;;;;11.87;8.17;;;;;;;10.68;44.02;100066.63;5063902;28;20247;-61
2024/03/10 10:00:26;;;;;;;10.13;7.67;;;;;;;10.73;44.09;100045.94;5057982;28;20775;-62
2024/03/10 10:02:59;;;;;;;12.27;8.07;;;;;;;10.82;43.92;100041.50;5064559;28;20669;-65
2024/03/10 10:05:29;;;;;;;19.50;9.20;;;;;;;10.92;43.83;100044.00;5073076;28;20232;-61
2024/03/10 10:08:01;;;;;;;13.10;9.13;;;;;;;10.93;43.66;100046.53;5070071;28;20205;-64
2024/03/10 10:10:29;;;;;;;12.43;7.23;;;;;;;10.98;43.43;100039.63;5077662;28;20567;-62
2024/03/10 10:12:58;;;;;;;17.97;8.70;;;;;;;10.99;43.50;100046.47;5073300;28;20233;-61
2024/03/10 10:15:26;;;;;;;9.27;7.50;;;;;;;11.02;43.56;100030.97;5073282;28;20214;-63
2024/03/10 10:17:55;;;;;;;12.40;8.77;;;;;;;11.03;43.29;100036.97;5073160;28;20213;-62
2024/03/10 10:20:25;;;;;;;10.30;8.23;;;;;;;11.05;43.50;100048.13;5061816;28;20200;-62
2024/03/10 10:22:54;;;;;;;11.60;7.87;;;;;;;11.06;43.62;100032.63;5071246;28;20201;-62
2024/03/10 10:25:24;;;;;;;11.13;7.40;;;;;;;11.19;43.30;100029.84;5072085;28;20212;-62
2024/03/10 10:27:54;;;;;;;9.60;7.37;;;;;;;11.29;43.02;100039.19;5073506;28;20287;-61
2024/03/10 10:30:25;;;;;;;12.60;6.73;;;;;;;11.47;43.04;100028.56;5068617;28;20212;-62
2024/03/10 10:33:04;;;;;;;9.53;6.63;;;;;;;11.71;42.22;100031.63;5073689;28;20233;-61
2024/03/10 10:35:34;;;;;;;9.50;6.57;;;;;;;11.83;40.92;100034.03;5069140;28;20221;-62
2024/03/10 10:38:11;;;;;;;12.23;7.20;;;;;;;11.86;41.46;100023.69;5073574;28;20209;-67
2024/03/10 10:40:41;;;;;;;10.63;7.30;;;;;;;11.93;41.10;100014.97;5063501;28;20657;-63
2024/03/10 10:43:10;;;;;;;10.07;6.63;;;;;;;12.07;41.32;100018.13;5064903;28;20232;-63
2024/03/10 10:45:38;;;;;;;11.70;7.07;;;;;;;12.23;40.80;100015.28;5075405;28;20598;-64
2024/03/10 10:48:08;;;;;;;9.83;6.40;;;;;;;12.24;40.31;100017.81;5070594;28;20729;-64
2024/03/10 10:50:37;;;;;;;8.70;6.70;;;;;;;12.24;40.57;100012.66;5073399;28;20231;-62
2024/03/10 10:53:06;;;;;;;12.10;6.80;;;;;;;12.29;40.59;100020.31;5071964;28;20665;-63
2024/03/10 10:55:36;;;;;;;11.03;7.53;;;;;;;12.27;40.19;100017.78;5070199;28;20228;-61
2024/03/10 10:58:11;;;;;;;8.47;6.50;;;;;;;12.19;40.53;100018.81;5068923;28;20254;-63
2024/03/10 11:00:42;;;;;;;10.60;6.83;;;;;;;12.17;40.73;100015.38;5069396;28;20255;-66
2024/03/10 11:03:14;;;;;;;10.53;7.23;;;;;;;12.19;40.73;100018.81;5069528;28;20228;-64
2024/03/10 11:05:45;;;;;;;10.53;6.77;;;;;;;12.16;40.82;100003.38;5064443;28;20210;-61
2024/03/10 11:08:15;;;;;;;8.10;6.40;;;;;;;12.14;41.07;100010.28;5066120;28;20239;-61
2024/03/10 11:10:49;;;;;;;10.00;6.57;;;;;;;12.15;40.87;100006.81;5066439;28;20205;-62
2024/03/10 11:13:19;;;;;;;9.83;7.07;;;;;;;12.18;40.88;100001.59;5068343;28;20616;-66
2024/03/10 11:15:47;;;;;;;9.30;7.80;;;;;;;12.26;40.76;100007.44;5072147;28;20221;-63
2024/03/10 11:18:29;;;;;;;11.07;7.60;;;;;;;12.38;41.01;99996.06;5072315;28;20201;-62
2024/03/10 11:20:58;;;;;;;13.43;6.90;;;;;;;12.59;40.92;100003.34;5063282;28;20205;-64
2024/03/10 11:23:36;;;;;;;9.03;7.07;;;;;;;12.68;40.29;99999.75;5071850;28;20558;-61
2024/03/10 11:26:08;;;;;;;9.77;6.60;;;;;;;12.79;40.27;99995.19;5066334;28;20262;-60
2024/03/10 11:28:52;;;;;;;11.53;7.13;;;;;;;12.93;39.53;100000.06;5066616;28;20207;-66
2024/03/10 11:31:38;;;;;;;8.37;6.67;;;;;;;12.93;39.20;99995.75;5065842;28;20672;-63
2024/03/10 11:34:10;;;;;;;9.27;6.60;;;;;;;12.87;39.72;99995.88;5072845;28;20205;-63
2024/03/10 11:36:39;;;;;;;9.27;7.00;;;;;;;12.81;39.39;99983.94;5068538;28;20305;-67
2024/03/10 11:39:08;;;;;;;10.67;6.53;;;;;;;12.73;40.15;99995.31;5069511;28;20201;-63
2024/03/10 11:41:37;;;;;;;9.27;6.83;;;;;;;12.73;40.21;99995.31;5069602;28;20609;-64
2024/03/10 11:44:11;;;;;;;10.53;7.23;;;;;;;12.70;40.37;99995.38;5071638;28;20213;-62
2024/03/10 11:46:39;;;;;;;11.27;6.67;;;;;;;12.69;39.98;99991.09;5069790;28;20204;-64
2024/03/10 11:49:08;;;;;;;9.57;6.60;;;;;;;12.69;40.63;99985.94;5067269;28;20221;-64